createdAt,value
2019-04-25T00:00:46.945Z,7.70
2019-04-25T00:03:28.681Z,7.60
2019-04-25T00:06:08.946Z,7.60
2019-04-25T00:08:48.926Z,7.60
2019-04-25T00:11:28.775Z,7.50
2019-04-25T00:14:11.314Z,7.50
2019-04-25T00:16:53.051Z,7.40
2019-04-25T00:19:36.942Z,7.30
2019-04-25T00:28:43.509Z,7.20
2019-04-25T00:31:21.968Z,7.20
2019-04-25T00:34:09.472Z,7.20
2019-04-25T00:36:48.979Z,7.20
2019-04-25T00:39:29.242Z,7.20
2019-04-25T00:42:09.151Z,7.20
2019-04-25T00:44:51.545Z,7.20
2019-04-25T00:47:32.122Z,7.20
2019-04-25T00:50:12.382Z,7.20
2019-04-25T00:52:53.706Z,7.10
2019-04-25T00:55:34.014Z,7.10
2019-04-25T01:01:49.952Z,7.10
2019-04-25T01:04:33.651Z,7.10
2019-04-25T01:07:13.454Z,7.10
2019-04-25T01:09:54.599Z,7.00
2019-04-25T01:12:34.594Z,7.00
2019-04-25T01:15:14.696Z,7.00
2019-04-25T01:17:55.139Z,6.90
2019-04-25T01:20:34.617Z,6.90
2019-04-25T01:23:14.788Z,6.90
2019-04-25T01:25:54.860Z,6.90
2019-04-25T01:28:35.801Z,7.00
2019-04-25T01:31:17.778Z,7.00
2019-04-25T01:33:57.654Z,7.00
2019-04-25T01:36:57.211Z,7.00
2019-04-25T01:43:14.398Z,6.90
2019-04-25T01:45:54.881Z,6.80
2019-04-25T01:48:34.898Z,6.80
2019-04-25T01:51:14.874Z,6.80
2019-04-25T01:53:55.700Z,6.80
2019-04-25T01:56:35.779Z,6.80
2019-04-25T01:59:15.689Z,6.70
2019-04-25T02:01:56.764Z,6.80
2019-04-25T02:04:37.085Z,6.80
2019-04-25T02:07:17.325Z,6.80
2019-04-25T02:09:57.393Z,6.90
2019-04-25T02:12:43.602Z,6.80
2019-04-25T02:15:26.851Z,6.80
2019-04-25T02:21:00.281Z,6.80
2019-04-25T02:23:40.824Z,6.80
2019-04-25T02:26:20.974Z,6.80
2019-04-25T02:29:01.141Z,6.70
2019-04-25T02:31:41.153Z,6.70
2019-04-25T02:34:21.861Z,6.70
2019-04-25T02:37:05.630Z,6.70
2019-04-25T02:39:44.894Z,6.70
2019-04-25T02:42:28.815Z,6.70
2019-04-25T02:48:48.089Z,6.70
2019-04-25T02:51:39.083Z,6.60
2019-04-25T02:57:08.034Z,6.60
2019-04-25T02:59:47.425Z,6.60
2019-04-25T03:02:27.861Z,6.70
2019-04-25T03:05:09.967Z,6.70
2019-04-25T03:07:49.834Z,6.70
2019-04-25T03:10:29.872Z,6.60
2019-04-25T03:13:11.905Z,6.60
2019-04-25T03:15:53.519Z,6.60
2019-04-25T03:18:37.719Z,6.60
2019-04-25T03:21:24.982Z,6.50
2019-04-25T03:24:13.860Z,6.50
2019-04-25T03:26:53.709Z,6.40
2019-04-25T03:29:34.248Z,6.30
2019-04-25T03:32:19.639Z,6.30
2019-04-25T03:34:56.486Z,6.30
2019-04-25T03:37:36.552Z,6.30
2019-04-25T03:40:20.896Z,6.30
2019-04-25T03:43:01.378Z,6.20
2019-04-25T03:45:41.261Z,6.10
2019-04-25T03:48:21.439Z,6.00
2019-04-25T03:56:25.141Z,6.20
2019-04-25T03:58:53.972Z,6.10
2019-04-25T04:01:40.166Z,6.10
2019-04-25T04:04:20.663Z,6.00
2019-04-25T04:07:00.811Z,5.90
2019-04-25T04:09:40.659Z,5.90
2019-04-25T04:12:20.929Z,5.90
2019-04-25T04:15:00.621Z,6.00
2019-04-25T04:17:43.707Z,6.10
2019-04-25T04:20:43.575Z,6.20
2019-04-25T04:23:43.515Z,6.30
2019-04-25T04:26:23.660Z,6.30
2019-04-25T04:29:04.665Z,6.30
2019-04-25T04:31:44.420Z,6.40
2019-04-25T04:34:24.576Z,6.50
2019-04-25T04:37:05.355Z,6.60
2019-04-25T04:42:31.290Z,6.80
2019-04-25T04:45:10.822Z,7.00
2019-04-25T04:53:23.518Z,7.80
2019-04-25T04:56:04.231Z,8.30
2019-04-25T04:58:44.157Z,8.80
2019-04-25T05:01:26.019Z,9.20
2019-04-25T05:04:13.074Z,9.60
2019-04-25T05:10:08.668Z,10.80
2019-04-25T05:12:48.611Z,11.20
2019-04-25T05:15:28.506Z,11.70
2019-04-25T05:18:08.261Z,12.20
2019-04-25T05:23:59.268Z,12.70
2019-04-25T05:26:36.982Z,12.80
2019-04-25T05:32:25.791Z,12.80
2019-04-25T05:35:10.017Z,13.80
2019-04-25T05:41:04.838Z,14.80
2019-04-25T05:43:53.524Z,14.50
2019-04-25T05:46:54.061Z,13.60
2019-04-25T05:49:34.245Z,12.70
2019-04-25T05:52:14.279Z,12.10
2019-04-25T05:54:54.283Z,11.80
2019-04-25T05:57:47.314Z,11.20
2019-04-25T06:00:20.727Z,11.10
2019-04-25T06:03:00.536Z,11.50
2019-04-25T06:05:40.870Z,11.90
2019-04-25T06:08:25.541Z,12.40
2019-04-25T06:11:26.190Z,12.90
2019-04-25T06:14:27.996Z,13.50
2019-04-25T06:19:53.507Z,14.50
2019-04-25T06:25:21.772Z,15.40
2019-04-25T06:30:37.928Z,17.20
2019-04-25T06:33:04.947Z,18.60
2019-04-25T06:35:34.499Z,20.00
2019-04-25T06:38:24.892Z,21.20
2019-04-25T06:43:47.758Z,22.60
2019-04-25T06:49:26.821Z,24.20
2019-04-25T06:52:14.747Z,24.80
2019-04-25T06:54:43.614Z,25.10
2019-04-25T06:57:10.925Z,25.50
2019-04-25T06:59:41.287Z,25.80
2019-04-25T07:02:10.998Z,25.80
2019-04-25T07:04:38.155Z,26.40
2019-04-25T07:07:11.984Z,26.80
2019-04-25T07:09:35.983Z,26.80
2019-04-25T07:12:03.964Z,27.00
2019-04-25T07:14:31.545Z,26.90
2019-04-25T07:16:58.945Z,27.30
2019-04-25T07:19:27.128Z,28.00
2019-04-25T07:21:55.801Z,28.40
2019-04-25T07:27:35.568Z,29.60
2019-04-25T07:33:35.661Z,30.60
2019-04-25T07:36:35.137Z,31.20
2019-04-25T07:39:23.611Z,31.60
2019-04-25T07:42:04.192Z,32.00
2019-04-25T07:47:37.694Z,31.30
2019-04-25T07:53:05.837Z,32.30
2019-04-25T07:55:35.895Z,32.80
2019-04-25T07:58:21.087Z,32.90
2019-04-25T08:01:02.019Z,33.30
2019-04-25T08:03:41.809Z,33.10
2019-04-25T08:09:04.999Z,32.90
2019-04-25T08:11:47.109Z,33.50
2019-04-25T08:14:34.238Z,33.30
2019-04-25T08:17:41.519Z,33.10
2019-04-25T08:23:07.616Z,34.20
2019-04-25T08:25:48.238Z,34.80
2019-04-25T08:28:28.217Z,35.30
2019-04-25T08:31:09.284Z,35.20
2019-04-25T08:33:49.885Z,34.60
2019-04-25T08:36:29.193Z,34.00
2019-04-25T08:39:11.666Z,32.60
2019-04-25T08:41:51.783Z,31.80
2019-04-25T08:44:31.611Z,31.20
2019-04-25T08:47:14.459Z,30.40
2019-04-25T08:50:26.435Z,30.20
2019-04-25T08:53:05.208Z,29.90
2019-04-25T08:55:51.028Z,30.20
2019-04-25T08:59:03.293Z,30.20
2019-04-25T09:04:54.055Z,30.50
2019-04-25T09:07:35.441Z,30.50
2019-04-25T09:10:16.453Z,30.80
2019-04-25T09:12:56.525Z,31.00
2019-04-25T09:15:40.029Z,31.20
2019-04-25T09:18:19.369Z,31.40
2019-04-25T09:23:46.454Z,32.20
2019-04-25T09:26:35.699Z,32.20
2019-04-25T09:29:36.639Z,32.50
2019-04-25T09:32:16.810Z,32.80
2019-04-25T09:34:56.575Z,33.30
2019-04-25T09:37:38.711Z,33.90
2019-04-25T09:40:18.991Z,34.50
2019-04-25T09:45:53.528Z,34.70
2019-04-25T09:51:44.620Z,33.60
2019-04-25T09:57:53.248Z,33.10
2019-04-25T10:03:21.194Z,33.70
2019-04-25T10:06:01.590Z,34.80
2019-04-25T10:08:41.620Z,34.50
2019-04-25T10:14:02.358Z,33.10
2019-04-25T10:16:44.376Z,32.70
2019-04-25T10:19:25.062Z,32.40
2019-04-25T10:22:04.562Z,32.40
2019-04-25T10:24:57.583Z,32.60
2019-04-25T10:27:26.469Z,33.20
2019-04-25T10:30:16.840Z,33.90
2019-04-25T10:32:48.822Z,34.80
2019-04-25T10:35:28.259Z,35.40
2019-04-25T10:38:09.573Z,35.50
2019-04-25T10:40:49.736Z,35.60
2019-04-25T10:43:30.593Z,35.90
2019-04-25T10:46:10.766Z,36.10
2019-04-25T10:48:51.033Z,35.90
2019-04-25T10:51:30.819Z,35.50
2019-04-25T10:54:10.730Z,35.30
2019-04-25T10:56:50.934Z,35.10
2019-04-25T10:59:31.810Z,34.40
2019-04-25T11:05:04.481Z,31.50
2019-04-25T11:07:44.519Z,31.30
2019-04-25T11:10:24.336Z,31.10
2019-04-25T11:13:04.227Z,31.30
2019-04-25T11:15:44.943Z,31.70
2019-04-25T11:18:24.406Z,31.30
2019-04-25T11:21:07.951Z,30.20
2019-04-25T11:23:48.854Z,30.00
2019-04-25T11:26:30.236Z,29.40
2019-04-25T11:29:10.463Z,29.30
2019-04-25T11:31:54.787Z,29.30
2019-04-25T11:34:34.451Z,29.90
2019-04-25T11:37:14.818Z,30.40
2019-04-25T11:40:14.460Z,29.90
2019-04-25T11:42:54.955Z,29.90
2019-04-25T11:48:23.873Z,29.20
2019-04-25T11:51:04.188Z,29.80
2019-04-25T11:53:31.559Z,30.00
2019-04-25T11:56:18.295Z,30.60
2019-04-25T11:58:58.750Z,30.70
2019-04-25T12:01:38.756Z,31.30
2019-04-25T12:04:18.764Z,31.60
2019-04-25T12:06:59.162Z,31.80
2019-04-25T12:09:39.211Z,31.90
2019-04-25T12:12:19.142Z,32.10
2019-04-25T12:14:59.538Z,31.50
2019-04-25T12:17:39.491Z,31.10
2019-04-25T12:20:19.385Z,30.70
2019-04-25T12:23:10.412Z,30.90
2019-04-25T12:28:56.915Z,31.60
2019-04-25T12:31:37.004Z,32.60
2019-04-25T12:34:17.160Z,32.80
2019-04-25T12:36:45.119Z,32.30
2019-04-25T12:39:34.295Z,31.80
2019-04-25T12:42:35.179Z,31.50
2019-04-25T12:48:35.450Z,30.70
2019-04-25T12:51:03.443Z,30.10
2019-04-25T12:53:43.835Z,29.40
2019-04-25T12:56:24.788Z,29.10
2019-04-25T13:02:01.230Z,30.10
2019-04-25T13:04:41.237Z,30.10
2019-04-25T13:07:21.701Z,29.60
2019-04-25T13:10:02.185Z,30.20
2019-04-25T13:12:42.471Z,30.70
2019-04-25T13:18:08.846Z,30.60
2019-04-25T13:20:49.046Z,30.40
2019-04-25T13:23:28.852Z,30.40
2019-04-25T13:26:09.597Z,30.00
2019-04-25T13:32:15.630Z,29.20
2019-04-25T13:34:45.072Z,29.00
2019-04-25T13:37:14.017Z,28.70
2019-04-25T13:40:16.294Z,28.80
2019-04-25T13:46:02.983Z,29.10
2019-04-25T13:48:44.033Z,29.20
2019-04-25T13:51:24.664Z,29.10
2019-04-25T13:53:52.106Z,29.00
2019-04-25T13:56:40.551Z,29.00
2019-04-25T13:59:28.345Z,29.10
2019-04-25T14:02:15.524Z,29.30
2019-04-25T14:04:44.271Z,28.90
2019-04-25T14:07:31.923Z,29.00
2019-04-25T14:09:59.513Z,28.80
2019-04-25T14:12:46.264Z,28.70
2019-04-25T14:15:37.244Z,28.50
2019-04-25T14:18:24.289Z,28.70
2019-04-25T14:23:46.257Z,29.50
2019-04-25T14:26:33.248Z,29.50
2019-04-25T14:29:04.310Z,29.30
2019-04-25T14:31:42.363Z,28.90
2019-04-25T14:34:00.414Z,28.60
2019-04-25T14:36:28.631Z,28.50
2019-04-25T14:38:55.913Z,28.40
2019-04-25T14:41:23.789Z,28.30
2019-04-25T14:43:51.486Z,28.30
2019-04-25T14:46:18.968Z,28.30
2019-04-25T14:48:46.347Z,28.50
2019-04-25T14:51:13.481Z,28.90
2019-04-25T14:53:40.838Z,29.80
2019-04-25T14:56:28.000Z,30.30
2019-04-25T14:58:55.213Z,30.40
2019-04-25T15:01:25.976Z,30.30
2019-04-25T15:09:39.306Z,30.90
2019-04-25T15:12:19.500Z,31.00
2019-04-25T15:14:46.796Z,31.00
2019-04-25T15:17:14.422Z,31.00
2019-04-25T15:19:42.963Z,30.90
2019-04-25T15:22:10.497Z,30.90
2019-04-25T15:24:38.034Z,30.70
2019-04-25T15:27:05.359Z,30.80
2019-04-25T15:29:32.661Z,30.80
2019-04-25T15:32:00.343Z,30.90
2019-04-25T15:37:39.249Z,30.90
2019-04-25T15:46:27.368Z,29.90
2019-04-25T15:48:54.457Z,29.20
2019-04-25T15:51:21.796Z,28.80
2019-04-25T15:53:48.914Z,28.50
2019-04-25T15:56:16.045Z,28.30
2019-04-25T15:58:44.107Z,28.10
2019-04-25T16:01:11.701Z,28.20
2019-04-25T16:03:39.084Z,28.30
2019-04-25T16:06:06.606Z,28.40
2019-04-25T16:08:35.050Z,28.40
2019-04-25T16:11:02.351Z,28.40
2019-04-25T16:13:30.163Z,28.20
2019-04-25T16:15:58.154Z,28.10
2019-04-25T16:18:27.319Z,27.90
2019-04-25T16:20:54.668Z,28.10
2019-04-25T16:23:21.917Z,28.10
2019-04-25T16:25:49.338Z,28.00
2019-04-25T16:28:36.115Z,28.10
2019-04-25T16:31:04.889Z,28.00
2019-04-25T16:33:33.127Z,28.00
2019-04-25T16:36:00.632Z,27.70
2019-04-25T16:38:27.619Z,27.50
2019-04-25T16:43:44.980Z,26.90
2019-04-25T16:46:13.538Z,26.60
2019-04-25T16:51:34.000Z,26.30
2019-04-25T16:56:57.948Z,26.60
2019-04-25T16:59:25.692Z,26.80
2019-04-25T17:02:12.871Z,27.10
2019-04-25T17:04:41.677Z,27.20
2019-04-25T17:07:30.420Z,27.30
2019-04-25T17:09:57.455Z,27.20
2019-04-25T17:15:38.340Z,27.00
2019-04-25T17:18:25.420Z,27.00
2019-04-25T17:21:11.517Z,26.90
2019-04-25T17:23:38.310Z,26.80
2019-04-25T17:26:06.009Z,26.70
2019-04-25T17:28:37.537Z,26.50
2019-04-25T17:31:24.751Z,25.80
2019-04-25T17:34:24.358Z,25.20
2019-04-25T17:40:17.928Z,23.10
2019-04-25T17:42:56.841Z,22.30
2019-04-25T17:45:43.941Z,21.40
2019-04-25T17:48:25.340Z,20.80
2019-04-25T17:54:10.800Z,19.60
2019-04-25T17:56:38.611Z,19.10
2019-04-25T17:59:27.717Z,18.80
2019-04-25T18:02:14.527Z,18.60
2019-04-25T18:04:54.766Z,18.40
2019-04-25T18:07:36.443Z,18.20
2019-04-25T18:10:17.587Z,18.00
2019-04-25T18:12:57.428Z,17.90
2019-04-25T18:18:49.163Z,17.60
2019-04-25T18:21:16.756Z,17.40
2019-04-25T18:24:23.480Z,17.20
2019-04-25T18:39:21.352Z,16.50
2019-04-25T18:42:27.915Z,16.40
2019-04-25T18:45:09.989Z,16.40
2019-04-25T18:50:36.261Z,16.40
2019-04-25T18:53:39.215Z,16.40
2019-04-25T18:56:19.774Z,16.20
2019-04-25T18:59:26.418Z,16.10
2019-04-25T19:02:33.321Z,16.10
2019-04-25T19:11:06.712Z,15.60
2019-04-25T19:13:47.314Z,15.50
2019-04-25T19:16:27.854Z,15.40
2019-04-25T19:19:07.476Z,15.30
2019-04-25T19:21:47.803Z,15.20
2019-04-25T19:30:00.986Z,14.80
2019-04-25T19:32:41.731Z,14.80
2019-04-25T19:35:22.230Z,14.70
2019-04-25T19:38:03.264Z,14.60
2019-04-25T19:40:48.263Z,14.60
2019-04-25T19:46:17.827Z,14.40
2019-04-25T19:51:41.749Z,14.30
2019-04-25T19:54:21.976Z,14.20
2019-04-25T19:57:02.816Z,14.20
2019-04-25T19:59:43.298Z,14.10
2019-04-25T20:02:25.945Z,14.10
2019-04-25T20:14:12.841Z,13.90
2019-04-25T20:16:53.808Z,13.80
2019-04-25T20:19:34.263Z,13.80
2019-04-25T20:22:14.145Z,13.80
2019-04-25T20:27:37.271Z,13.70
2019-04-25T20:30:18.127Z,13.60
2019-04-25T20:32:58.082Z,13.40
2019-04-25T20:35:47.503Z,13.40
2019-04-25T20:41:15.494Z,13.20
2019-04-25T20:43:55.361Z,13.20
2019-04-25T20:49:22.216Z,13.10
2019-04-25T20:51:50.847Z,13.00
2019-04-25T20:54:27.071Z,13.00
2019-04-25T20:56:55.145Z,13.00
2019-04-25T20:59:35.892Z,13.10
2019-04-25T21:02:16.314Z,13.10
2019-04-25T21:04:56.857Z,13.10
2019-04-25T21:07:36.541Z,13.10
2019-04-25T21:10:16.261Z,13.00
2019-04-25T21:12:56.593Z,12.90
2019-04-25T21:15:59.545Z,12.90
2019-04-25T21:18:40.386Z,12.80
2019-04-25T21:21:19.940Z,12.80
2019-04-25T21:26:46.953Z,12.70
2019-04-25T21:29:14.355Z,12.60
2019-04-25T21:31:41.424Z,12.60
2019-04-25T21:34:10.999Z,12.50
2019-04-25T21:39:53.276Z,12.50
2019-04-25T21:42:47.593Z,12.40
2019-04-25T21:45:45.787Z,12.30
2019-04-25T21:51:21.538Z,12.30
2019-04-25T21:54:03.779Z,12.20
2019-04-25T21:56:44.273Z,12.10
2019-04-25T21:59:22.317Z,12.10
2019-04-25T22:02:03.016Z,12.00
2019-04-25T22:04:50.088Z,12.00
2019-04-25T22:07:17.973Z,11.90
2019-04-25T22:09:45.823Z,11.90
2019-04-25T22:12:54.711Z,11.80
2019-04-25T22:15:30.723Z,11.80
2019-04-25T22:17:59.039Z,11.70
2019-04-25T22:21:04.249Z,11.70
2019-04-25T22:23:31.918Z,11.60
2019-04-25T22:26:01.080Z,11.50
2019-04-25T22:28:41.042Z,11.50
2019-04-25T22:37:47.296Z,11.30
2019-04-25T22:46:26.306Z,11.20
2019-04-25T22:49:10.407Z,11.10
2019-04-25T22:51:50.730Z,10.90
2019-04-25T22:54:31.009Z,10.90
2019-04-25T22:56:58.554Z,10.80
2019-04-25T22:59:53.485Z,10.80
2019-04-25T23:02:42.411Z,10.70
2019-04-25T23:05:33.888Z,10.50
2019-04-25T23:08:14.459Z,10.50
2019-04-25T23:10:54.508Z,10.50
2019-04-25T23:13:35.405Z,10.50
2019-04-25T23:16:04.126Z,10.40
2019-04-25T23:24:23.853Z,10.20
2019-04-25T23:27:02.084Z,10.20
2019-04-25T23:29:32.557Z,10.20
2019-04-25T23:31:59.961Z,10.20
2019-04-25T23:37:31.130Z,10.10
2019-04-25T23:40:13.788Z,10.10
2019-04-25T23:42:44.281Z,10.10
2019-04-25T23:45:12.397Z,10.10
2019-04-25T23:50:22.812Z,10.00
2019-04-25T23:52:50.110Z,9.90
2019-04-25T23:55:17.363Z,9.90
2019-04-25T23:57:44.292Z,9.90
